createdAt,value
2018-08-14T00:02:23.303Z,97173.11
2018-08-14T00:04:51.081Z,97173.39
2018-08-14T00:07:19.004Z,97168.70
2018-08-14T00:09:47.045Z,97169.62
2018-08-14T00:12:14.875Z,97170.68
2018-08-14T00:14:42.664Z,97175.11
2018-08-14T00:17:10.398Z,97176.42
2018-08-14T00:19:38.212Z,97175.77
2018-08-14T00:22:05.984Z,97179.89
2018-08-14T00:24:34.144Z,97182.91
2018-08-14T00:27:01.895Z,97186.47
2018-08-14T00:29:29.788Z,97188.92
2018-08-14T00:31:57.580Z,97189.97
2018-08-14T00:34:25.301Z,97195.61
2018-08-14T00:36:53.226Z,97195.68
2018-08-14T00:39:20.944Z,97197.48
2018-08-14T00:41:48.597Z,97203.51
2018-08-14T00:44:16.436Z,97205.84
2018-08-14T00:46:44.376Z,97200.20
2018-08-14T00:49:12.164Z,97203.14
2018-08-14T00:51:39.880Z,97201.80
2018-08-14T00:54:07.666Z,97201.63
2018-08-14T00:56:35.317Z,97196.72
2018-08-14T00:59:02.990Z,97189.39
2018-08-14T01:01:30.740Z,97188.37
2018-08-14T01:03:58.824Z,97196.55
2018-08-14T01:06:26.524Z,97192.31
2018-08-14T01:08:54.252Z,97198.69
2018-08-14T01:11:21.957Z,97199.06
2018-08-14T01:13:50.707Z,97196.72
2018-08-14T01:16:18.518Z,97194.45
2018-08-14T01:18:46.292Z,97193.70
2018-08-14T01:21:14.033Z,97194.95
2018-08-14T01:23:41.750Z,97190.88
2018-08-14T01:26:09.625Z,97196.78
2018-08-14T01:28:37.343Z,97187.58
2018-08-14T01:31:05.475Z,97182.30
2018-08-14T01:33:33.309Z,97193.66
2018-08-14T01:36:01.069Z,97190.70
2018-08-14T01:38:28.787Z,97191.96
2018-08-14T01:40:56.504Z,97193.16
2018-08-14T01:43:25.259Z,97190.17
2018-08-14T01:45:52.941Z,97192.66
2018-08-14T01:48:20.602Z,97193.31
2018-08-14T01:50:48.253Z,97197.70
2018-08-14T01:53:15.964Z,97204.31
2018-08-14T01:55:43.635Z,97196.31
2018-08-14T01:58:11.588Z,97196.37
2018-08-14T02:00:39.301Z,97198.06
2018-08-14T02:03:07.044Z,97201.61
2018-08-14T02:05:34.741Z,97203.22
2018-08-14T02:08:02.750Z,97197.77
2018-08-14T02:10:30.488Z,97201.63
2018-08-14T02:12:58.325Z,97202.05
2018-08-14T02:15:26.295Z,97198.59
2018-08-14T02:17:54.079Z,97208.22
2018-08-14T02:20:23.198Z,97204.81
2018-08-14T02:22:52.467Z,97205.75
2018-08-14T02:25:20.240Z,97207.78
2018-08-14T02:27:47.875Z,97215.85
2018-08-14T02:30:16.400Z,97216.42
2018-08-14T02:32:44.406Z,97220.55
2018-08-14T02:35:13.341Z,97219.23
2018-08-14T02:37:41.261Z,97218.53
2018-08-14T02:40:12.355Z,97223.85
2018-08-14T02:42:40.045Z,97220.88
2018-08-14T02:45:08.995Z,97225.80
2018-08-14T02:47:36.868Z,97228.92
2018-08-14T02:50:05.384Z,97230.73
2018-08-14T02:52:33.203Z,97235.30
2018-08-14T02:55:00.965Z,97241.41
2018-08-14T02:57:29.889Z,97238.52
2018-08-14T02:59:57.678Z,97236.59
2018-08-14T03:02:25.355Z,97240.02
2018-08-14T03:04:53.071Z,97234.42
2018-08-14T03:07:20.829Z,97238.79
2018-08-14T03:09:48.509Z,97236.88
2018-08-14T03:12:16.199Z,97241.02
2018-08-14T03:14:56.388Z,97241.89
2018-08-14T03:17:24.408Z,97239.04
2018-08-14T03:19:54.388Z,97245.06
2018-08-14T03:22:22.160Z,97251.36
2018-08-14T03:24:49.935Z,97247.08
2018-08-14T03:27:17.719Z,97252.19
2018-08-14T03:29:45.503Z,97254.14
2018-08-14T03:32:13.266Z,97252.44
2018-08-14T03:34:40.971Z,97252.62
2018-08-14T03:37:08.787Z,97255.58
2018-08-14T03:39:36.455Z,97248.27
2018-08-14T03:42:04.209Z,97252.02
2018-08-14T03:44:33.020Z,97259.69
2018-08-14T03:47:00.718Z,97258.43
2018-08-14T03:49:28.355Z,97258.39
2018-08-14T03:51:56.077Z,97262.50
2018-08-14T03:54:23.768Z,97262.72
2018-08-14T03:56:51.516Z,97263.95
2018-08-14T03:59:19.208Z,97261.89
2018-08-14T04:01:46.875Z,97267.16
2018-08-14T04:04:14.677Z,97267.62
2018-08-14T04:06:42.613Z,97276.47
2018-08-14T04:09:11.583Z,97274.77
2018-08-14T04:11:39.386Z,97278.05
2018-08-14T04:14:07.372Z,97281.04
2018-08-14T04:16:35.672Z,97287.77
2018-08-14T04:19:03.382Z,97288.03
2018-08-14T04:21:31.133Z,97296.25
2018-08-14T04:23:58.788Z,97292.78
2018-08-14T04:26:27.098Z,97284.57
2018-08-14T04:28:55.219Z,97289.34
2018-08-14T04:31:22.907Z,97298.41
2018-08-14T04:33:50.568Z,97301.77
2018-08-14T04:36:18.266Z,97310.73
2018-08-14T04:38:45.935Z,97311.25
2018-08-14T04:41:13.662Z,97310.28
2018-08-14T04:43:41.455Z,97316.23
2018-08-14T04:46:09.134Z,97315.12
2018-08-14T04:48:36.887Z,97327.12
2018-08-14T04:51:04.679Z,97323.84
2018-08-14T04:53:32.330Z,97321.66
2018-08-14T04:56:00.030Z,97331.10
2018-08-14T04:58:29.890Z,97337.48
2018-08-14T05:00:58.628Z,97342.75
2018-08-14T05:03:26.371Z,97350.86
2018-08-14T05:05:53.999Z,97350.84
2018-08-14T05:08:21.646Z,97344.98
2018-08-14T05:10:49.320Z,97351.98
2018-08-14T05:13:17.024Z,97355.61
2018-08-14T05:15:44.715Z,97359.12
2018-08-14T05:18:12.388Z,97359.05
2018-08-14T05:20:40.075Z,97370.83
2018-08-14T05:23:07.803Z,97364.77
2018-08-14T05:25:35.446Z,97369.88
2018-08-14T05:28:03.198Z,97375.27
2018-08-14T05:30:30.862Z,97365.14
2018-08-14T05:32:58.607Z,97375.68
2018-08-14T05:35:26.307Z,97378.95
2018-08-14T05:37:54.015Z,97383.19
2018-08-14T05:40:21.736Z,97383.30
2018-08-14T05:42:49.491Z,97382.13
2018-08-14T05:45:17.212Z,97386.23
2018-08-14T05:47:44.994Z,97388.78
2018-08-14T05:50:16.722Z,97391.66
2018-08-14T05:52:44.414Z,97391.91
2018-08-14T05:55:12.140Z,97393.76
2018-08-14T05:57:39.936Z,97393.54
2018-08-14T06:00:10.219Z,97400.44
2018-08-14T06:02:37.995Z,97401.17
2018-08-14T06:05:06.465Z,97400.20
2018-08-14T06:07:34.198Z,97407.45
2018-08-14T06:10:01.890Z,97399.89
2018-08-14T06:12:29.659Z,97400.97
2018-08-14T06:14:57.392Z,97401.46
2018-08-14T06:17:28.264Z,97411.03
2018-08-14T06:19:55.931Z,97401.65
2018-08-14T06:22:23.608Z,97403.75
2018-08-14T06:24:51.283Z,97413.80
2018-08-14T06:27:18.983Z,97404.46
2018-08-14T06:29:46.639Z,97410.67
2018-08-14T06:32:14.277Z,97416.77
2018-08-14T06:34:41.960Z,97419.25
2018-08-14T06:37:09.661Z,97429.48
2018-08-14T06:39:37.375Z,97422.50
2018-08-14T06:42:05.135Z,97427.48
2018-08-14T06:44:32.774Z,97432.64
2018-08-14T06:47:00.431Z,97421.50
2018-08-14T06:49:28.183Z,97429.22
2018-08-14T06:51:55.843Z,97428.89
2018-08-14T06:54:23.488Z,97434.16
2018-08-14T06:56:51.204Z,97429.50
2018-08-14T06:59:18.812Z,97427.02
2018-08-14T07:01:46.485Z,97431.84
2018-08-14T07:04:14.172Z,97431.37
2018-08-14T07:06:41.836Z,97435.23
2018-08-14T07:09:10.143Z,97434.09
2018-08-14T07:11:37.891Z,97438.39
2018-08-14T07:14:07.403Z,97430.14
2018-08-14T07:16:35.714Z,97431.45
2018-08-14T07:19:03.415Z,97434.89
2018-08-14T07:21:31.210Z,97431.45
2018-08-14T07:23:58.949Z,97438.23
2018-08-14T07:26:26.735Z,97439.05
2018-08-14T07:28:54.343Z,97436.70
2018-08-14T07:31:22.017Z,97431.94
2018-08-14T07:33:49.690Z,97433.05
2018-08-14T07:36:17.320Z,97426.55
2018-08-14T07:38:44.947Z,97437.13
2018-08-14T07:41:12.658Z,97430.77
2018-08-14T07:43:40.304Z,97424.75
2018-08-14T07:46:07.908Z,97433.14
2018-08-14T07:48:35.676Z,97443.39
2018-08-14T07:51:03.322Z,97426.23
2018-08-14T07:53:31.010Z,97423.19
2018-08-14T07:55:58.683Z,97426.02
2018-08-14T07:58:26.391Z,97428.64
2018-08-14T08:00:54.026Z,97433.19
2018-08-14T08:03:21.785Z,97427.84
2018-08-14T08:05:49.423Z,97428.80
2018-08-14T08:08:17.111Z,97435.11
2018-08-14T08:10:44.803Z,97434.36
2018-08-14T08:13:12.545Z,97442.95
2018-08-14T08:15:40.204Z,97447.63
2018-08-14T08:18:08.071Z,97447.57
2018-08-14T08:20:35.771Z,97440.51
2018-08-14T08:23:06.008Z,97450.46
2018-08-14T08:25:34.004Z,97448.05
2018-08-14T08:28:01.940Z,97452.32
2018-08-14T08:30:29.709Z,97453.23
2018-08-14T08:32:57.549Z,97452.70
2018-08-14T08:35:26.024Z,97451.75
2018-08-14T08:37:53.774Z,97450.11
2018-08-14T08:40:21.834Z,97450.53
2018-08-14T08:42:49.557Z,97447.06
2018-08-14T08:45:17.272Z,97437.41
2018-08-14T08:47:44.987Z,97448.23
2018-08-14T08:50:14.060Z,97443.93
2018-08-14T08:52:42.213Z,97448.27
2018-08-14T08:55:13.769Z,97449.85
2018-08-14T08:57:41.548Z,97454.19
2018-08-14T09:00:11.620Z,97445.56
2018-08-14T09:02:39.471Z,97451.20
2018-08-14T09:05:09.526Z,97451.73
2018-08-14T09:07:37.268Z,97444.27
2018-08-14T09:10:06.746Z,97445.88
2018-08-14T09:12:34.412Z,97440.37
2018-08-14T09:15:02.147Z,97441.41
2018-08-14T09:17:29.846Z,97446.30
2018-08-14T09:19:57.559Z,97439.50
2018-08-14T09:22:25.263Z,97435.34
2018-08-14T09:24:52.904Z,97435.90
2018-08-14T09:27:20.605Z,97430.17
2018-08-14T09:29:48.327Z,97434.16
2018-08-14T09:32:16.019Z,97439.08
2018-08-14T09:34:43.708Z,97436.23
2018-08-14T09:37:11.395Z,97434.36
2018-08-14T09:39:39.239Z,97432.56
2018-08-14T09:42:07.078Z,97431.34
2018-08-14T09:44:34.771Z,97430.88
2018-08-14T09:47:02.663Z,97432.93
2018-08-14T09:49:30.289Z,97436.87
2018-08-14T09:51:57.994Z,97424.47
2018-08-14T09:54:25.925Z,97430.13
2018-08-14T09:56:53.608Z,97437.06
2018-08-14T09:59:21.365Z,97436.97
2018-08-14T10:01:54.587Z,97435.48
2018-08-14T10:04:26.839Z,97429.30
2018-08-14T10:07:58.805Z,97435.95
2018-08-14T10:10:26.502Z,97438.26
2018-08-14T10:12:54.259Z,97434.83
2018-08-14T10:15:21.968Z,97437.34
2018-08-14T10:17:49.621Z,97430.69
2018-08-14T10:20:17.292Z,97432.73
2018-08-14T10:22:45.040Z,97430.66
2018-08-14T10:25:12.756Z,97432.98
2018-08-14T10:27:40.456Z,97433.86
2018-08-14T10:30:12.296Z,97430.42
2018-08-14T10:32:40.015Z,97423.64
2018-08-14T10:35:07.720Z,97428.38
2018-08-14T10:37:35.463Z,97425.64
2018-08-14T10:40:03.402Z,97425.76
2018-08-14T10:42:31.035Z,97431.98
2018-08-14T10:44:59.452Z,97437.80
2018-08-14T10:47:27.102Z,97434.77
2018-08-14T10:49:54.755Z,97438.19
2018-08-14T10:52:22.516Z,97438.02
2018-08-14T10:54:50.204Z,97442.05
2018-08-14T10:57:17.919Z,97452.05
2018-08-14T10:59:45.650Z,97455.06
2018-08-14T11:02:13.433Z,97449.67
2018-08-14T11:04:41.113Z,97458.89
2018-08-14T11:07:09.140Z,97458.14
2018-08-14T11:09:36.786Z,97468.95
2018-08-14T11:12:10.166Z,97468.27
2018-08-14T11:14:37.965Z,97466.75
2018-08-14T11:17:05.627Z,97469.23
2018-08-14T11:19:33.326Z,97479.94
2018-08-14T11:22:01.085Z,97479.89
2018-08-14T11:24:28.783Z,97481.97
2018-08-14T11:26:56.477Z,97492.48
2018-08-14T11:29:24.210Z,97482.09
2018-08-14T11:31:51.859Z,97490.02
2018-08-14T11:34:19.515Z,97490.52
2018-08-14T11:36:47.158Z,97482.38
2018-08-14T11:39:14.804Z,97482.36
2018-08-14T11:41:42.465Z,97486.61
2018-08-14T11:44:10.127Z,97490.95
2018-08-14T11:46:37.882Z,97498.23
2018-08-14T11:49:05.634Z,97499.17
2018-08-14T11:51:33.303Z,97505.10
2018-08-14T11:54:01.277Z,97506.94
2018-08-14T11:56:28.980Z,97507.80
2018-08-14T11:58:56.776Z,97500.97
2018-08-14T12:01:24.444Z,97498.41
2018-08-14T12:03:52.188Z,97509.38
2018-08-14T12:06:19.831Z,97508.55
2018-08-14T12:08:47.531Z,97504.52
2018-08-14T12:11:15.296Z,97513.69
2018-08-14T12:13:42.911Z,97494.81
2018-08-14T12:16:10.573Z,97494.03
2018-08-14T12:18:38.464Z,97504.02
2018-08-14T12:21:06.046Z,97496.09
2018-08-14T12:23:33.734Z,97493.86
2018-08-14T12:26:02.936Z,97498.41
2018-08-14T12:28:30.577Z,97497.00
2018-08-14T12:30:58.267Z,97500.47
2018-08-14T12:33:26.005Z,97502.08
2018-08-14T12:35:53.654Z,97505.55
2018-08-14T12:38:21.306Z,97506.79
2018-08-14T12:40:49.046Z,97506.01
2018-08-14T12:43:18.155Z,97503.66
2018-08-14T12:45:45.806Z,97499.34
2018-08-14T12:48:13.559Z,97497.06
2018-08-14T12:50:41.246Z,97491.18
2018-08-14T12:53:08.908Z,97489.42
2018-08-14T12:55:36.651Z,97497.55
2018-08-14T12:58:04.571Z,97492.52
2018-08-14T13:00:32.231Z,97497.30
2018-08-14T13:03:00.018Z,97493.37
2018-08-14T13:05:28.023Z,97497.97
2018-08-14T13:07:55.987Z,97508.13
2018-08-14T13:10:23.859Z,97502.75
2018-08-14T13:12:51.511Z,97509.77
2018-08-14T13:15:19.362Z,97520.87
2018-08-14T13:18:09.627Z,97520.32
2018-08-14T13:20:37.447Z,97519.72
2018-08-14T13:23:06.554Z,97524.28
2018-08-14T13:25:34.263Z,97520.32
2018-08-14T13:28:01.941Z,97507.28
2018-08-14T13:30:29.684Z,97515.63
2018-08-14T13:32:57.468Z,97502.77
2018-08-14T13:35:25.198Z,97507.56
2018-08-14T13:37:52.915Z,97507.83
2018-08-14T13:40:20.700Z,97506.30
2018-08-14T13:42:48.377Z,97497.10
2018-08-14T13:45:16.126Z,97509.16
2018-08-14T13:47:43.872Z,97514.09
2018-08-14T13:50:12.357Z,97522.35
2018-08-14T13:52:40.162Z,97521.91
2018-08-14T13:55:11.884Z,97523.46
2018-08-14T13:57:39.948Z,97532.65
2018-08-14T14:00:11.407Z,97527.58
2018-08-14T14:02:39.675Z,97522.19
2018-08-14T14:05:07.425Z,97521.00
2018-08-14T14:07:35.391Z,97522.95
2018-08-14T14:10:03.206Z,97529.03
2018-08-14T14:12:30.885Z,97516.77
2018-08-14T14:14:58.533Z,97517.34
2018-08-14T14:17:26.213Z,97516.97
2018-08-14T14:19:53.861Z,97518.91
2018-08-14T14:22:21.518Z,97514.52
2018-08-14T14:24:49.311Z,97523.95
2018-08-14T14:27:16.993Z,97533.41
2018-08-14T14:29:44.648Z,97526.09
2018-08-14T14:32:12.724Z,97531.20
2018-08-14T14:34:40.412Z,97529.93
2018-08-14T14:37:08.160Z,97535.27
2018-08-14T14:39:35.817Z,97533.97
2018-08-14T14:42:03.535Z,97530.63
2018-08-14T14:44:31.274Z,97542.64
2018-08-14T14:46:58.899Z,97536.90
2018-08-14T14:49:26.523Z,97550.61
2018-08-14T14:51:54.250Z,97552.62
2018-08-14T14:54:21.938Z,97551.20
2018-08-14T14:56:49.714Z,97549.99
2018-08-14T14:59:17.422Z,97553.96
2018-08-14T15:01:45.085Z,97557.46
2018-08-14T15:04:12.758Z,97562.95
2018-08-14T15:06:40.541Z,97552.95
2018-08-14T15:09:09.891Z,97554.66
2018-08-14T15:11:37.518Z,97573.62
2018-08-14T15:14:05.641Z,97558.60
2018-08-14T15:16:33.467Z,97555.53
2018-08-14T15:19:16.248Z,97555.69
2018-08-14T15:21:44.032Z,97550.44
2018-08-14T15:24:11.824Z,97558.53
2018-08-14T15:26:40.818Z,97557.20
2018-08-14T15:29:15.431Z,97556.33
2018-08-14T15:31:46.390Z,97543.84
2018-08-14T15:34:16.264Z,97554.44
2018-08-14T15:36:45.480Z,97559.46
2018-08-14T15:39:14.514Z,97557.39
2018-08-14T15:41:42.392Z,97558.02
2018-08-14T15:44:10.475Z,97550.92
2018-08-14T15:46:38.392Z,97562.75
2018-08-14T15:49:06.564Z,97565.02
2018-08-14T15:51:34.529Z,97555.75
2018-08-14T15:54:02.482Z,97560.10
2018-08-14T15:56:30.296Z,97567.72
2018-08-14T15:58:58.053Z,97559.73
2018-08-14T16:01:28.587Z,97562.16
2018-08-14T16:03:56.499Z,97552.45
2018-08-14T16:06:24.312Z,97561.91
2018-08-14T16:08:52.081Z,97575.70
2018-08-14T16:11:19.876Z,97568.92
2018-08-14T16:13:47.978Z,97568.83
2018-08-14T16:16:15.804Z,97566.66
2018-08-14T16:18:43.769Z,97574.58
2018-08-14T16:21:11.786Z,97576.20
2018-08-14T16:23:39.652Z,97590.43
2018-08-14T16:26:07.736Z,97584.28
2018-08-14T16:28:35.661Z,97609.20
2018-08-14T16:31:03.558Z,97609.77
2018-08-14T16:33:31.457Z,97624.17
2018-08-14T16:35:59.318Z,97631.37
2018-08-14T16:38:27.074Z,97629.25
2018-08-14T16:40:54.954Z,97633.98
2018-08-14T16:43:22.599Z,97625.33
2018-08-14T16:45:50.184Z,97616.66
2018-08-14T16:48:18.011Z,97629.46
2018-08-14T16:50:45.679Z,97632.17
2018-08-14T16:53:13.455Z,97632.72
2018-08-14T16:55:41.215Z,97633.16
2018-08-14T16:58:08.932Z,97632.23
2018-08-14T17:00:37.690Z,97632.73
2018-08-14T17:03:07.003Z,97628.11
2018-08-14T17:05:34.733Z,97632.49
2018-08-14T17:08:02.554Z,97629.59
2018-08-14T17:10:30.215Z,97632.98
2018-08-14T17:12:58.466Z,97627.57
2018-08-14T17:15:26.774Z,97630.55
2018-08-14T17:17:54.818Z,97622.19
2018-08-14T17:20:21.537Z,97630.91
2018-08-14T17:22:49.312Z,97626.13
2018-08-14T17:25:17.230Z,97631.57
2018-08-14T17:27:47.100Z,97624.03
2018-08-14T17:30:21.091Z,97633.91
2018-08-14T17:32:49.896Z,97627.09
2018-08-14T17:35:17.684Z,97631.88
2018-08-14T17:37:45.636Z,97632.36
2018-08-14T17:40:15.407Z,97629.98
2018-08-14T17:42:43.403Z,97630.67
2018-08-14T17:45:22.332Z,97621.96
2018-08-14T17:47:51.437Z,97635.32
2018-08-14T17:50:19.567Z,97629.39
2018-08-14T17:52:47.380Z,97631.08
2018-08-14T17:55:15.240Z,97636.90
2018-08-14T17:57:43.083Z,97630.31
2018-08-14T18:00:17.318Z,97639.45
2018-08-14T18:02:45.619Z,97641.38
2018-08-14T18:18:47.102Z,97670.42
2018-08-14T18:21:14.908Z,97667.55
2018-08-14T18:23:42.812Z,97675.31
2018-08-14T18:26:10.592Z,97681.53
2018-08-14T18:28:38.350Z,97692.70
2018-08-14T18:31:06.289Z,97689.86
2018-08-14T18:33:34.051Z,97691.00
2018-08-14T18:36:01.690Z,97698.99
2018-08-14T18:38:29.396Z,97706.53
2018-08-14T18:40:57.226Z,97715.75
2018-08-14T18:43:24.915Z,97713.93
2018-08-14T18:45:53.010Z,97719.78
2018-08-14T18:48:20.749Z,97717.94
2018-08-14T18:50:50.737Z,97725.98
2018-08-14T18:53:18.893Z,97736.00
2018-08-14T18:55:47.348Z,97736.36
2018-08-14T18:58:15.696Z,97737.64
2018-08-14T19:00:44.095Z,97737.03
2018-08-14T19:03:11.977Z,97745.61
2018-08-14T19:05:39.676Z,97749.64
2018-08-14T19:08:07.428Z,97749.42
2018-08-14T19:10:35.151Z,97748.77
2018-08-14T19:13:02.867Z,97759.69
2018-08-14T19:15:36.059Z,97765.89
2018-08-14T19:18:04.363Z,97770.33
2018-08-14T19:20:32.110Z,97776.47
2018-08-14T19:22:59.821Z,97780.27
2018-08-14T19:25:27.499Z,97786.91
2018-08-14T19:27:55.153Z,97792.31
2018-08-14T19:30:22.932Z,97794.14
2018-08-14T19:32:50.632Z,97797.08
2018-08-14T19:35:18.372Z,97798.48
2018-08-14T19:37:48.452Z,97801.94
2018-08-14T19:40:18.845Z,97808.84
2018-08-14T19:42:46.798Z,97813.47
2018-08-14T19:45:14.512Z,97813.16
2018-08-14T19:47:42.234Z,97807.58
2018-08-14T19:50:11.233Z,97816.36
2018-08-14T19:52:38.994Z,97821.89
2018-08-14T19:55:09.185Z,97817.31
2018-08-14T19:57:36.929Z,97816.49
2018-08-14T20:00:06.954Z,97818.80
2018-08-14T20:02:34.764Z,97819.57
2018-08-14T20:05:02.488Z,97823.02
2018-08-14T20:07:30.319Z,97824.10
2018-08-14T20:09:58.367Z,97821.61
2018-08-14T20:12:26.219Z,97822.04
2018-08-14T20:14:53.884Z,97818.59
2018-08-14T20:17:21.641Z,97822.19
2018-08-14T20:19:49.328Z,97825.45
2018-08-14T20:22:17.567Z,97829.44
2018-08-14T20:24:45.766Z,97827.70
2018-08-14T20:27:13.928Z,97831.94
2018-08-14T20:29:41.891Z,97837.61
2018-08-14T20:32:09.644Z,97842.27
2018-08-14T20:34:38.946Z,97835.77
2018-08-14T20:37:06.700Z,97841.09
2018-08-14T20:39:34.428Z,97841.20
2018-08-14T20:42:02.211Z,97839.80
2018-08-14T20:44:30.035Z,97849.20
2018-08-14T20:46:57.876Z,97847.12
2018-08-14T20:49:25.603Z,97849.96
2018-08-14T20:51:53.359Z,97856.78
2018-08-14T20:54:21.031Z,97857.34
2018-08-14T20:56:48.664Z,97855.30
2018-08-14T20:59:16.343Z,97856.68
2018-08-14T21:01:44.044Z,97852.00
2018-08-14T21:04:11.742Z,97857.63
2018-08-14T21:06:39.440Z,97852.01
2018-08-14T21:09:08.372Z,97855.05
2018-08-14T21:11:36.220Z,97852.45
2018-08-14T21:14:04.175Z,97857.11
2018-08-14T21:16:31.790Z,97852.77
2018-08-14T21:18:59.439Z,97854.83
2018-08-14T21:21:27.182Z,97856.88
2018-08-14T21:23:55.088Z,97856.46
2018-08-14T21:26:23.117Z,97854.52
2018-08-14T21:28:50.886Z,97855.59
2018-08-14T21:31:18.633Z,97852.13
2018-08-14T21:33:46.560Z,97852.13
2018-08-14T21:36:14.303Z,97853.64
2018-08-14T21:38:42.010Z,97858.97
2018-08-14T21:41:09.769Z,97857.09
2018-08-14T21:43:37.481Z,97859.36
2018-08-14T21:46:05.241Z,97864.16
2018-08-14T21:48:32.873Z,97857.09
2018-08-14T21:51:00.708Z,97862.32
2018-08-14T21:53:28.483Z,97859.16
2018-08-14T21:55:56.179Z,97869.67
2018-08-14T21:58:24.155Z,97869.90
2018-08-14T22:01:06.296Z,97870.31
2018-08-14T22:03:38.592Z,97873.59
2018-08-14T22:06:06.280Z,97878.46
2018-08-14T22:08:34.013Z,97877.36
2018-08-14T22:11:01.720Z,97879.75
2018-08-14T22:13:29.356Z,97871.72
2018-08-14T22:15:57.065Z,97877.81
2018-08-14T22:18:24.969Z,97876.83
2018-08-14T22:20:53.820Z,97871.61
2018-08-14T22:23:21.505Z,97874.02
2018-08-14T22:25:49.222Z,97874.46
2018-08-14T22:28:16.907Z,97871.95
2018-08-14T22:30:44.575Z,97874.22
2018-08-14T22:33:12.252Z,97875.97
2018-08-14T22:35:39.923Z,97875.66
2018-08-14T22:38:07.603Z,97876.39
2018-08-14T22:40:35.343Z,97881.06
2018-08-14T22:43:03.115Z,97881.48
2018-08-14T22:45:30.780Z,97880.62
2018-08-14T22:47:58.497Z,97883.20
2018-08-14T22:50:26.308Z,97877.80
2018-08-14T22:52:53.956Z,97874.77
2018-08-14T22:55:21.623Z,97878.87
2018-08-14T22:57:49.311Z,97882.97
2018-08-14T23:00:17.311Z,97884.06
2018-08-14T23:02:45.071Z,97884.06
2018-08-14T23:05:13.742Z,97879.30
2018-08-14T23:07:41.525Z,97881.48
2018-08-14T23:10:09.589Z,97874.33
2018-08-14T23:12:37.268Z,97878.67
2018-08-14T23:15:06.782Z,97885.45
2018-08-14T23:17:34.460Z,97884.81
2018-08-14T23:20:02.192Z,97879.52
2018-08-14T23:22:29.931Z,97882.57
2018-08-14T23:24:57.631Z,97882.37
2018-08-14T23:27:25.420Z,97893.52
2018-08-14T23:29:53.088Z,97888.63
2018-08-14T23:32:20.769Z,97892.96
2018-08-14T23:34:48.428Z,97896.20
2018-08-14T23:37:16.116Z,97897.95
2018-08-14T23:39:43.823Z,97897.94
2018-08-14T23:42:11.478Z,97902.89
2018-08-14T23:44:39.114Z,97895.30
2018-08-14T23:47:06.836Z,97894.84
2018-08-14T23:49:34.515Z,97891.04
2018-08-14T23:52:02.143Z,97902.11
2018-08-14T23:54:29.852Z,97900.34
2018-08-14T23:56:57.532Z,97906.08
2018-08-14T23:59:25.292Z,97905.55
